sensor_id;sensor_type;location;lat;lon;timestamp;P1;durP1;ratioP1;P2;durP2;ratioP2
75446;SDS011;64024;55.820;37.574;2023-12-29T00:02:02;0.60;;;0.40;;
75446;SDS011;64024;55.820;37.574;2023-12-29T00:04:27;0.90;;;0.43;;
75446;SDS011;64024;55.820;37.574;2023-12-29T00:06:53;0.73;;;0.30;;
75446;SDS011;64024;55.820;37.574;2023-12-29T00:09:19;0.90;;;0.47;;
75446;SDS011;64024;55.820;37.574;2023-12-29T00:11:48;0.85;;;0.40;;
75446;SDS011;64024;55.820;37.574;2023-12-29T00:14:15;0.80;;;0.40;;
75446;SDS011;64024;55.820;37.574;2023-12-29T00:16:42;0.80;;;0.40;;
75446;SDS011;64024;55.820;37.574;2023-12-29T00:19:09;1.08;;;0.45;;
75446;SDS011;64024;55.820;37.574;2023-12-29T00:21:36;0.88;;;0.50;;
75446;SDS011;64024;55.820;37.574;2023-12-29T00:24:02;0.80;;;0.40;;
75446;SDS011;64024;55.820;37.574;2023-12-29T00:26:27;0.80;;;0.50;;
75446;SDS011;64024;55.820;37.574;2023-12-29T00:28:54;1.08;;;0.60;;
75446;SDS011;64024;55.820;37.574;2023-12-29T00:31:20;1.35;;;0.73;;
75446;SDS011;64024;55.820;37.574;2023-12-29T00:33:46;1.55;;;0.63;;
75446;SDS011;64024;55.820;37.574;2023-12-29T00:36:18;1.35;;;0.73;;
75446;SDS011;64024;55.820;37.574;2023-12-29T00:38:44;1.15;;;0.57;;
75446;SDS011;64024;55.820;37.574;2023-12-29T00:41:10;0.57;;;0.35;;
75446;SDS011;64024;55.820;37.574;2023-12-29T00:43:36;0.52;;;0.40;;
75446;SDS011;64024;55.820;37.574;2023-12-29T00:46:02;0.93;;;0.55;;
75446;SDS011;64024;55.820;37.574;2023-12-29T00:48:29;0.90;;;0.50;;
75446;SDS011;64024;55.820;37.574;2023-12-29T00:50:55;1.10;;;0.70;;
75446;SDS011;64024;55.820;37.574;2023-12-29T00:53:21;0.90;;;0.50;;
75446;SDS011;64024;55.820;37.574;2023-12-29T00:55:47;1.30;;;0.70;;
75446;SDS011;64024;55.820;37.574;2023-12-29T00:58:13;1.17;;;0.57;;
75446;SDS011;64024;55.820;37.574;2023-12-29T01:00:38;1.58;;;0.70;;
75446;SDS011;64024;55.820;37.574;2023-12-29T01:03:04;1.75;;;1.02;;
75446;SDS011;64024;55.820;37.574;2023-12-29T01:05:30;1.23;;;0.40;;
75446;SDS011;64024;55.820;37.574;2023-12-29T01:07:56;1.08;;;0.68;;
75446;SDS011;64024;55.820;37.574;2023-12-29T01:10:22;1.15;;;0.60;;
75446;SDS011;64024;55.820;37.574;2023-12-29T01:12:48;1.38;;;0.60;;
75446;SDS011;64024;55.820;37.574;2023-12-29T01:15:14;0.90;;;0.50;;
75446;SDS011;64024;55.820;37.574;2023-12-29T01:17:40;1.42;;;0.60;;
75446;SDS011;64024;55.820;37.574;2023-12-29T01:20:06;1.65;;;0.60;;
75446;SDS011;64024;55.820;37.574;2023-12-29T01:22:33;0.93;;;0.45;;
75446;SDS011;64024;55.820;37.574;2023-12-29T01:24:58;1.45;;;0.70;;
75446;SDS011;64024;55.820;37.574;2023-12-29T01:27:25;1.23;;;0.70;;
75446;SDS011;64024;55.820;37.574;2023-12-29T01:29:50;1.30;;;0.70;;
75446;SDS011;64024;55.820;37.574;2023-12-29T01:32:17;1.08;;;0.60;;
75446;SDS011;64024;55.820;37.574;2023-12-29T01:34:44;1.10;;;0.70;;
75446;SDS011;64024;55.820;37.574;2023-12-29T01:37:09;0.70;;;0.50;;
75446;SDS011;64024;55.820;37.574;2023-12-29T01:39:35;1.33;;;0.70;;
75446;SDS011;64024;55.820;37.574;2023-12-29T01:42:01;0.90;;;0.47;;
75446;SDS011;64024;55.820;37.574;2023-12-29T01:44:27;1.15;;;0.43;;
75446;SDS011;64024;55.820;37.574;2023-12-29T01:46:57;1.33;;;0.60;;
75446;SDS011;64024;55.820;37.574;2023-12-29T01:49:25;1.58;;;0.63;;
75446;SDS011;64024;55.820;37.574;2023-12-29T01:51:52;1.02;;;0.70;;
75446;SDS011;64024;55.820;37.574;2023-12-29T01:54:21;1.27;;;0.60;;
75446;SDS011;64024;55.820;37.574;2023-12-29T01:56:50;1.00;;;0.50;;
75446;SDS011;64024;55.820;37.574;2023-12-29T01:59:17;1.48;;;0.95;;
75446;SDS011;64024;55.820;37.574;2023-12-29T02:01:44;0.93;;;0.50;;
75446;SDS011;64024;55.820;37.574;2023-12-29T02:04:11;0.93;;;0.50;;
75446;SDS011;64024;55.820;37.574;2023-12-29T02:06:38;0.80;;;0.40;;
75446;SDS011;64024;55.820;37.574;2023-12-29T02:09:05;0.73;;;0.35;;
75446;SDS011;64024;55.820;37.574;2023-12-29T02:11:31;1.00;;;0.60;;
75446;SDS011;64024;55.820;37.574;2023-12-29T02:14:00;0.98;;;0.52;;
75446;SDS011;64024;55.820;37.574;2023-12-29T02:16:33;2.33;;;0.90;;
75446;SDS011;64024;55.820;37.574;2023-12-29T02:19:08;1.30;;;0.50;;
75446;SDS011;64024;55.820;37.574;2023-12-29T02:21:47;0.93;;;0.43;;
75446;SDS011;64024;55.820;37.574;2023-12-29T02:24:13;1.10;;;0.70;;
75446;SDS011;64024;55.820;37.574;2023-12-29T02:26:39;0.85;;;0.40;;
75446;SDS011;64024;55.820;37.574;2023-12-29T02:29:11;0.98;;;0.47;;
75446;SDS011;64024;55.820;37.574;2023-12-29T02:31:43;1.10;;;0.40;;
75446;SDS011;64024;55.820;37.574;2023-12-29T02:34:14;1.73;;;0.70;;
75446;SDS011;64024;55.820;37.574;2023-12-29T02:36:43;1.23;;;0.57;;
75446;SDS011;64024;55.820;37.574;2023-12-29T02:39:10;1.30;;;0.60;;
75446;SDS011;64024;55.820;37.574;2023-12-29T02:41:37;3.53;;;0.70;;
75446;SDS011;64024;55.820;37.574;2023-12-29T02:44:04;1.30;;;0.60;;
75446;SDS011;64024;55.820;37.574;2023-12-29T02:46:30;2.55;;;0.70;;
75446;SDS011;64024;55.820;37.574;2023-12-29T02:48:56;0.50;;;0.35;;
75446;SDS011;64024;55.820;37.574;2023-12-29T02:51:21;1.15;;;0.50;;
75446;SDS011;64024;55.820;37.574;2023-12-29T02:53:47;0.63;;;0.50;;
75446;SDS011;64024;55.820;37.574;2023-12-29T02:56:14;1.38;;;0.60;;
75446;SDS011;64024;55.820;37.574;2023-12-29T02:58:40;1.15;;;0.60;;
75446;SDS011;64024;55.820;37.574;2023-12-29T03:01:05;2.72;;;0.60;;
75446;SDS011;64024;55.820;37.574;2023-12-29T03:03:31;1.30;;;0.60;;
75446;SDS011;64024;55.820;37.574;2023-12-29T03:05:57;1.45;;;0.88;;
75446;SDS011;64024;55.820;37.574;2023-12-29T03:08:23;2.58;;;0.52;;
75446;SDS011;64024;55.820;37.574;2023-12-29T03:10:48;1.08;;;0.70;;
75446;SDS011;64024;55.820;37.574;2023-12-29T03:13:14;1.02;;;0.70;;
75446;SDS011;64024;55.820;37.574;2023-12-29T03:15:40;3.67;;;0.95;;
75446;SDS011;64024;55.820;37.574;2023-12-29T03:18:06;2.72;;;0.70;;
75446;SDS011;64024;55.820;37.574;2023-12-29T03:20:31;1.73;;;0.90;;
75446;SDS011;64024;55.820;37.574;2023-12-29T03:22:57;1.17;;;0.70;;
75446;SDS011;64024;55.820;37.574;2023-12-29T03:25:23;2.35;;;0.90;;
75446;SDS011;64024;55.820;37.574;2023-12-29T03:27:49;1.65;;;0.80;;
75446;SDS011;64024;55.820;37.574;2023-12-29T03:30:14;1.23;;;0.65;;
75446;SDS011;64024;55.820;37.574;2023-12-29T03:32:40;2.35;;;0.82;;
75446;SDS011;64024;55.820;37.574;2023-12-29T03:35:06;3.33;;;0.82;;
75446;SDS011;64024;55.820;37.574;2023-12-29T03:37:31;1.85;;;0.75;;
75446;SDS011;64024;55.820;37.574;2023-12-29T03:39:57;1.17;;;0.68;;
75446;SDS011;64024;55.820;37.574;2023-12-29T03:42:23;1.92;;;0.70;;
75446;SDS011;64024;55.820;37.574;2023-12-29T03:44:48;1.67;;;0.80;;
75446;SDS011;64024;55.820;37.574;2023-12-29T03:47:14;1.52;;;0.60;;
75446;SDS011;64024;55.820;37.574;2023-12-29T03:49:40;1.60;;;1.10;;
75446;SDS011;64024;55.820;37.574;2023-12-29T03:52:05;1.63;;;0.63;;
75446;SDS011;64024;55.820;37.574;2023-12-29T03:54:31;2.97;;;1.40;;
75446;SDS011;64024;55.820;37.574;2023-12-29T03:56:57;1.92;;;0.65;;
75446;SDS011;64024;55.820;37.574;2023-12-29T03:59:22;1.20;;;0.68;;
75446;SDS011;64024;55.820;37.574;2023-12-29T04:01:48;1.70;;;0.77;;
75446;SDS011;64024;55.820;37.574;2023-12-29T04:04:14;1.15;;;0.70;;
75446;SDS011;64024;55.820;37.574;2023-12-29T04:06:40;1.80;;;0.68;;
75446;SDS011;64024;55.820;37.574;2023-12-29T04:09:06;1.48;;;0.50;;
75446;SDS011;64024;55.820;37.574;2023-12-29T04:11:32;2.15;;;0.85;;
75446;SDS011;64024;55.820;37.574;2023-12-29T04:13:58;1.40;;;0.60;;
75446;SDS011;64024;55.820;37.574;2023-12-29T04:16:23;1.30;;;0.70;;
75446;SDS011;64024;55.820;37.574;2023-12-29T04:18:49;1.10;;;0.70;;
75446;SDS011;64024;55.820;37.574;2023-12-29T04:21:15;1.20;;;0.70;;
75446;SDS011;64024;55.820;37.574;2023-12-29T04:23:40;1.25;;;0.55;;
75446;SDS011;64024;55.820;37.574;2023-12-29T04:26:09;2.58;;;0.50;;
75446;SDS011;64024;55.820;37.574;2023-12-29T04:28:35;1.60;;;0.70;;
75446;SDS011;64024;55.820;37.574;2023-12-29T04:31:00;1.70;;;0.88;;
75446;SDS011;64024;55.820;37.574;2023-12-29T04:33:26;2.42;;;0.93;;
75446;SDS011;64024;55.820;37.574;2023-12-29T04:35:52;2.22;;;0.70;;
75446;SDS011;64024;55.820;37.574;2023-12-29T04:38:17;1.40;;;0.70;;
75446;SDS011;64024;55.820;37.574;2023-12-29T04:40:45;1.33;;;0.70;;
75446;SDS011;64024;55.820;37.574;2023-12-29T04:43:12;2.75;;;0.88;;
75446;SDS011;64024;55.820;37.574;2023-12-29T04:45:38;1.50;;;0.77;;
75446;SDS011;64024;55.820;37.574;2023-12-29T04:48:04;2.10;;;0.90;;
75446;SDS011;64024;55.820;37.574;2023-12-29T04:50:30;2.42;;;0.88;;
75446;SDS011;64024;55.820;37.574;2023-12-29T04:52:55;2.58;;;0.90;;
75446;SDS011;64024;55.820;37.574;2023-12-29T04:55:21;1.40;;;0.60;;
75446;SDS011;64024;55.820;37.574;2023-12-29T04:57:47;2.08;;;0.75;;
75446;SDS011;64024;55.820;37.574;2023-12-29T05:00:13;1.40;;;0.80;;
75446;SDS011;64024;55.820;37.574;2023-12-29T05:02:39;1.90;;;0.82;;
75446;SDS011;64024;55.820;37.574;2023-12-29T05:05:05;0.93;;;0.60;;
75446;SDS011;64024;55.820;37.574;2023-12-29T05:07:31;1.70;;;0.75;;
75446;SDS011;64024;55.820;37.574;2023-12-29T05:09:56;1.42;;;0.70;;
75446;SDS011;64024;55.820;37.574;2023-12-29T05:12:22;1.55;;;0.80;;
75446;SDS011;64024;55.820;37.574;2023-12-29T05:14:48;2.40;;;1.00;;
75446;SDS011;64024;55.820;37.574;2023-12-29T05:17:14;1.80;;;1.00;;
75446;SDS011;64024;55.820;37.574;2023-12-29T05:19:39;2.38;;;0.88;;
75446;SDS011;64024;55.820;37.574;2023-12-29T05:22:05;1.90;;;1.08;;
75446;SDS011;64024;55.820;37.574;2023-12-29T05:24:31;1.35;;;0.90;;
75446;SDS011;64024;55.820;37.574;2023-12-29T05:26:56;1.63;;;0.70;;
75446;SDS011;64024;55.820;37.574;2023-12-29T05:29:23;1.30;;;0.90;;
75446;SDS011;64024;55.820;37.574;2023-12-29T05:31:48;1.58;;;0.57;;
75446;SDS011;64024;55.820;37.574;2023-12-29T05:34:14;1.05;;;0.55;;
75446;SDS011;64024;55.820;37.574;2023-12-29T05:36:40;1.38;;;0.70;;
75446;SDS011;64024;55.820;37.574;2023-12-29T05:39:07;1.42;;;0.60;;
75446;SDS011;64024;55.820;37.574;2023-12-29T05:41:33;1.27;;;0.70;;
75446;SDS011;64024;55.820;37.574;2023-12-29T05:43:58;1.95;;;1.10;;
75446;SDS011;64024;55.820;37.574;2023-12-29T05:46:25;1.70;;;0.80;;
75446;SDS011;64024;55.820;37.574;2023-12-29T05:48:51;1.58;;;0.80;;
75446;SDS011;64024;55.820;37.574;2023-12-29T05:51:18;2.30;;;0.70;;
75446;SDS011;64024;55.820;37.574;2023-12-29T05:53:44;2.50;;;0.82;;
75446;SDS011;64024;55.820;37.574;2023-12-29T05:56:12;2.08;;;0.60;;
75446;SDS011;64024;55.820;37.574;2023-12-29T05:58:42;1.20;;;0.73;;
75446;SDS011;64024;55.820;37.574;2023-12-29T06:01:08;1.60;;;0.70;;
75446;SDS011;64024;55.820;37.574;2023-12-29T06:03:34;1.55;;;0.85;;
75446;SDS011;64024;55.820;37.574;2023-12-29T06:06:01;1.60;;;1.00;;
75446;SDS011;64024;55.820;37.574;2023-12-29T06:08:27;2.00;;;1.23;;
75446;SDS011;64024;55.820;37.574;2023-12-29T06:10:53;1.45;;;0.80;;
75446;SDS011;64024;55.820;37.574;2023-12-29T06:13:18;1.65;;;0.80;;
75446;SDS011;64024;55.820;37.574;2023-12-29T06:15:44;2.42;;;1.00;;
75446;SDS011;64024;55.820;37.574;2023-12-29T06:18:10;1.63;;;1.00;;
75446;SDS011;64024;55.820;37.574;2023-12-29T06:20:36;1.15;;;0.63;;
75446;SDS011;64024;55.820;37.574;2023-12-29T06:23:01;1.85;;;0.80;;
75446;SDS011;64024;55.820;37.574;2023-12-29T06:25:27;2.03;;;1.13;;
75446;SDS011;64024;55.820;37.574;2023-12-29T06:27:53;2.42;;;0.80;;
75446;SDS011;64024;55.820;37.574;2023-12-29T06:30:19;1.63;;;0.85;;
75446;SDS011;64024;55.820;37.574;2023-12-29T06:32:45;3.15;;;1.10;;
75446;SDS011;64024;55.820;37.574;2023-12-29T06:35:11;1.70;;;0.70;;
75446;SDS011;64024;55.820;37.574;2023-12-29T06:37:40;1.58;;;1.13;;
75446;SDS011;64024;55.820;37.574;2023-12-29T06:40:06;1.63;;;0.80;;
75446;SDS011;64024;55.820;37.574;2023-12-29T06:42:33;1.30;;;0.80;;
75446;SDS011;64024;55.820;37.574;2023-12-29T06:44:58;2.33;;;1.02;;
75446;SDS011;64024;55.820;37.574;2023-12-29T06:47:24;1.70;;;0.82;;
75446;SDS011;64024;55.820;37.574;2023-12-29T06:49:50;1.60;;;0.82;;
75446;SDS011;64024;55.820;37.574;2023-12-29T06:52:16;1.77;;;0.70;;
75446;SDS011;64024;55.820;37.574;2023-12-29T06:54:42;2.90;;;1.20;;
75446;SDS011;64024;55.820;37.574;2023-12-29T06:57:08;3.80;;;1.23;;
75446;SDS011;64024;55.820;37.574;2023-12-29T06:59:34;1.15;;;0.70;;
75446;SDS011;64024;55.820;37.574;2023-12-29T07:01:59;2.60;;;0.93;;
75446;SDS011;64024;55.820;37.574;2023-12-29T07:04:29;1.13;;;0.75;;
75446;SDS011;64024;55.820;37.574;2023-12-29T07:06:55;1.77;;;1.00;;
75446;SDS011;64024;55.820;37.574;2023-12-29T07:09:20;1.90;;;1.10;;
75446;SDS011;64024;55.820;37.574;2023-12-29T07:11:49;1.95;;;1.10;;
75446;SDS011;64024;55.820;37.574;2023-12-29T07:14:15;1.13;;;0.70;;
75446;SDS011;64024;55.820;37.574;2023-12-29T07:16:41;1.90;;;0.82;;
75446;SDS011;64024;55.820;37.574;2023-12-29T07:19:06;1.80;;;1.15;;
75446;SDS011;64024;55.820;37.574;2023-12-29T07:21:32;2.00;;;1.05;;
75446;SDS011;64024;55.820;37.574;2023-12-29T07:23:58;1.73;;;1.10;;
75446;SDS011;64024;55.820;37.574;2023-12-29T07:26:24;1.65;;;1.00;;
75446;SDS011;64024;55.820;37.574;2023-12-29T07:28:50;1.35;;;0.80;;
75446;SDS011;64024;55.820;37.574;2023-12-29T07:31:20;1.90;;;1.48;;
75446;SDS011;64024;55.820;37.574;2023-12-29T07:33:47;1.98;;;1.00;;
75446;SDS011;64024;55.820;37.574;2023-12-29T07:36:12;1.70;;;1.08;;
75446;SDS011;64024;55.820;37.574;2023-12-29T07:38:38;1.70;;;0.75;;
75446;SDS011;64024;55.820;37.574;2023-12-29T07:41:04;1.50;;;0.90;;
75446;SDS011;64024;55.820;37.574;2023-12-29T07:43:31;2.28;;;1.08;;
75446;SDS011;64024;55.820;37.574;2023-12-29T07:45:56;5.53;;;1.15;;
75446;SDS011;64024;55.820;37.574;2023-12-29T07:48:22;4.07;;;2.13;;
75446;SDS011;64024;55.820;37.574;2023-12-29T07:50:48;2.50;;;1.42;;
75446;SDS011;64024;55.820;37.574;2023-12-29T07:53:14;2.00;;;1.38;;
75446;SDS011;64024;55.820;37.574;2023-12-29T07:55:42;2.72;;;1.80;;
75446;SDS011;64024;55.820;37.574;2023-12-29T07:58:09;2.03;;;0.98;;
75446;SDS011;64024;55.820;37.574;2023-12-29T08:00:36;2.90;;;1.40;;
75446;SDS011;64024;55.820;37.574;2023-12-29T08:03:02;2.80;;;1.75;;
75446;SDS011;64024;55.820;37.574;2023-12-29T08:05:28;4.90;;;2.47;;
75446;SDS011;64024;55.820;37.574;2023-12-29T08:07:54;3.13;;;1.73;;
75446;SDS011;64024;55.820;37.574;2023-12-29T08:10:20;2.95;;;1.70;;
75446;SDS011;64024;55.820;37.574;2023-12-29T08:12:46;2.28;;;1.50;;
75446;SDS011;64024;55.820;37.574;2023-12-29T08:15:11;3.95;;;2.00;;
75446;SDS011;64024;55.820;37.574;2023-12-29T08:17:37;3.00;;;2.15;;
75446;SDS011;64024;55.820;37.574;2023-12-29T08:20:04;3.47;;;1.83;;
75446;SDS011;64024;55.820;37.574;2023-12-29T08:22:31;2.88;;;1.52;;
75446;SDS011;64024;55.820;37.574;2023-12-29T08:24:57;1.73;;;1.10;;
75446;SDS011;64024;55.820;37.574;2023-12-29T08:27:24;1.92;;;1.23;;
75446;SDS011;64024;55.820;37.574;2023-12-29T08:29:53;2.88;;;1.77;;
75446;SDS011;64024;55.820;37.574;2023-12-29T08:32:19;1.75;;;0.98;;
75446;SDS011;64024;55.820;37.574;2023-12-29T08:34:46;2.00;;;1.10;;
75446;SDS011;64024;55.820;37.574;2023-12-29T08:37:12;1.50;;;1.08;;
75446;SDS011;64024;55.820;37.574;2023-12-29T08:39:40;2.05;;;1.15;;
75446;SDS011;64024;55.820;37.574;2023-12-29T08:42:06;2.22;;;1.38;;
75446;SDS011;64024;55.820;37.574;2023-12-29T08:44:32;1.92;;;1.30;;
75446;SDS011;64024;55.820;37.574;2023-12-29T08:46:58;3.15;;;1.20;;
75446;SDS011;64024;55.820;37.574;2023-12-29T08:49:23;3.05;;;1.13;;
75446;SDS011;64024;55.820;37.574;2023-12-29T08:51:49;2.55;;;1.33;;
75446;SDS011;64024;55.820;37.574;2023-12-29T08:54:15;2.17;;;1.08;;
75446;SDS011;64024;55.820;37.574;2023-12-29T08:56:41;2.85;;;1.20;;
75446;SDS011;64024;55.820;37.574;2023-12-29T08:59:06;4.72;;;1.25;;
75446;SDS011;64024;55.820;37.574;2023-12-29T09:01:32;2.05;;;1.20;;
75446;SDS011;64024;55.820;37.574;2023-12-29T09:03:58;1.70;;;1.40;;
75446;SDS011;64024;55.820;37.574;2023-12-29T09:06:25;3.13;;;1.55;;
75446;SDS011;64024;55.820;37.574;2023-12-29T09:08:51;2.42;;;1.38;;
75446;SDS011;64024;55.820;37.574;2023-12-29T09:11:16;2.10;;;1.50;;
75446;SDS011;64024;55.820;37.574;2023-12-29T09:13:42;1.75;;;1.00;;
75446;SDS011;64024;55.820;37.574;2023-12-29T09:16:08;3.15;;;1.27;;
75446;SDS011;64024;55.820;37.574;2023-12-29T09:18:33;3.00;;;1.20;;
75446;SDS011;64024;55.820;37.574;2023-12-29T09:20:59;2.72;;;1.20;;
75446;SDS011;64024;55.820;37.574;2023-12-29T09:23:25;1.83;;;0.90;;
75446;SDS011;64024;55.820;37.574;2023-12-29T09:25:51;2.95;;;1.38;;
75446;SDS011;64024;55.820;37.574;2023-12-29T09:28:16;2.53;;;1.30;;
75446;SDS011;64024;55.820;37.574;2023-12-29T09:30:42;4.00;;;1.48;;
75446;SDS011;64024;55.820;37.574;2023-12-29T09:33:08;2.75;;;1.10;;
75446;SDS011;64024;55.820;37.574;2023-12-29T09:35:37;2.28;;;1.30;;
75446;SDS011;64024;55.820;37.574;2023-12-29T09:38:04;2.25;;;1.00;;
75446;SDS011;64024;55.820;37.574;2023-12-29T09:40:30;1.88;;;1.05;;
75446;SDS011;64024;55.820;37.574;2023-12-29T09:42:55;2.15;;;1.10;;
75446;SDS011;64024;55.820;37.574;2023-12-29T09:45:23;2.08;;;1.00;;
75446;SDS011;64024;55.820;37.574;2023-12-29T09:47:52;1.75;;;0.88;;
75446;SDS011;64024;55.820;37.574;2023-12-29T09:50:20;2.40;;;1.10;;
75446;SDS011;64024;55.820;37.574;2023-12-29T09:52:47;3.03;;;1.20;;
75446;SDS011;64024;55.820;37.574;2023-12-29T09:55:17;1.92;;;1.00;;
75446;SDS011;64024;55.820;37.574;2023-12-29T09:57:46;1.92;;;0.80;;
75446;SDS011;64024;55.820;37.574;2023-12-29T10:00:12;2.53;;;0.75;;
75446;SDS011;64024;55.820;37.574;2023-12-29T10:02:41;2.70;;;1.08;;
75446;SDS011;64024;55.820;37.574;2023-12-29T10:05:07;2.45;;;1.33;;
75446;SDS011;64024;55.820;37.574;2023-12-29T10:07:35;2.40;;;1.13;;
75446;SDS011;64024;55.820;37.574;2023-12-29T10:10:05;2.13;;;1.10;;
75446;SDS011;64024;55.820;37.574;2023-12-29T10:12:32;2.00;;;0.90;;
75446;SDS011;64024;55.820;37.574;2023-12-29T10:17:28;1.85;;;1.10;;
75446;SDS011;64024;55.820;37.574;2023-12-29T10:23:17;1.92;;;1.08;;
75446;SDS011;64024;55.820;37.574;2023-12-29T10:25:49;1.60;;;0.90;;
75446;SDS011;64024;55.820;37.574;2023-12-29T10:28:16;1.48;;;0.88;;
75446;SDS011;64024;55.820;37.574;2023-12-29T10:30:43;2.22;;;0.90;;
75446;SDS011;64024;55.820;37.574;2023-12-29T10:33:09;1.73;;;1.02;;
75446;SDS011;64024;55.820;37.574;2023-12-29T10:35:38;1.70;;;0.80;;
75446;SDS011;64024;55.820;37.574;2023-12-29T10:38:08;2.45;;;0.95;;
75446;SDS011;64024;55.820;37.574;2023-12-29T10:40:37;1.50;;;0.90;;
75446;SDS011;64024;55.820;37.574;2023-12-29T10:43:03;2.15;;;1.20;;
75446;SDS011;64024;55.820;37.574;2023-12-29T10:45:33;2.00;;;0.93;;
75446;SDS011;64024;55.820;37.574;2023-12-29T10:48:01;1.58;;;0.90;;
75446;SDS011;64024;55.820;37.574;2023-12-29T10:50:28;1.63;;;1.20;;
75446;SDS011;64024;55.820;37.574;2023-12-29T10:53:15;2.17;;;1.00;;
75446;SDS011;64024;55.820;37.574;2023-12-29T10:55:44;2.17;;;1.10;;
75446;SDS011;64024;55.820;37.574;2023-12-29T10:58:15;1.58;;;0.80;;
75446;SDS011;64024;55.820;37.574;2023-12-29T11:00:44;1.80;;;0.80;;
75446;SDS011;64024;55.820;37.574;2023-12-29T11:03:12;2.15;;;1.00;;
75446;SDS011;64024;55.820;37.574;2023-12-29T11:05:40;4.32;;;1.23;;
75446;SDS011;64024;55.820;37.574;2023-12-29T11:08:14;1.80;;;0.90;;
75446;SDS011;64024;55.820;37.574;2023-12-29T11:10:42;1.73;;;1.00;;
75446;SDS011;64024;55.820;37.574;2023-12-29T11:13:10;2.53;;;1.33;;
75446;SDS011;64024;55.820;37.574;2023-12-29T11:15:40;1.80;;;1.10;;
75446;SDS011;64024;55.820;37.574;2023-12-29T11:18:09;1.45;;;0.90;;
75446;SDS011;64024;55.820;37.574;2023-12-29T11:20:45;1.50;;;0.98;;
75446;SDS011;64024;55.820;37.574;2023-12-29T11:23:12;1.48;;;0.90;;
75446;SDS011;64024;55.820;37.574;2023-12-29T11:25:43;2.25;;;1.10;;
75446;SDS011;64024;55.820;37.574;2023-12-29T11:28:13;1.63;;;1.00;;
75446;SDS011;64024;55.820;37.574;2023-12-29T11:30:39;2.63;;;1.40;;
75446;SDS011;64024;55.820;37.574;2023-12-29T11:33:07;2.25;;;1.63;;
75446;SDS011;64024;55.820;37.574;2023-12-29T11:35:51;3.40;;;1.45;;
75446;SDS011;64024;55.820;37.574;2023-12-29T11:43:43;2.03;;;1.00;;
75446;SDS011;64024;55.820;37.574;2023-12-29T11:49:08;2.65;;;1.48;;
75446;SDS011;64024;55.820;37.574;2023-12-29T11:51:35;2.05;;;1.30;;
75446;SDS011;64024;55.820;37.574;2023-12-29T11:54:08;2.75;;;1.73;;
75446;SDS011;64024;55.820;37.574;2023-12-29T11:56:35;3.85;;;2.22;;
75446;SDS011;64024;55.820;37.574;2023-12-29T12:01:47;2.10;;;1.30;;
75446;SDS011;64024;55.820;37.574;2023-12-29T12:07:15;2.13;;;1.27;;
75446;SDS011;64024;55.820;37.574;2023-12-29T12:09:43;2.83;;;1.50;;
75446;SDS011;64024;55.820;37.574;2023-12-29T12:12:08;2.13;;;1.17;;
75446;SDS011;64024;55.820;37.574;2023-12-29T12:17:27;2.72;;;1.10;;
75446;SDS011;64024;55.820;37.574;2023-12-29T12:19:57;2.97;;;1.08;;
75446;SDS011;64024;55.820;37.574;2023-12-29T12:22:36;3.20;;;1.70;;
75446;SDS011;64024;55.820;37.574;2023-12-29T12:25:03;3.28;;;1.40;;
75446;SDS011;64024;55.820;37.574;2023-12-29T12:27:30;2.20;;;1.02;;
75446;SDS011;64024;55.820;37.574;2023-12-29T12:29:57;1.90;;;1.08;;
75446;SDS011;64024;55.820;37.574;2023-12-29T12:32:28;1.70;;;1.05;;
75446;SDS011;64024;55.820;37.574;2023-12-29T12:34:55;1.73;;;0.88;;
75446;SDS011;64024;55.820;37.574;2023-12-29T12:39:56;2.05;;;1.25;;
75446;SDS011;64024;55.820;37.574;2023-12-29T12:42:23;2.40;;;1.10;;
75446;SDS011;64024;55.820;37.574;2023-12-29T12:44:54;2.17;;;1.25;;
75446;SDS011;64024;55.820;37.574;2023-12-29T12:47:37;3.63;;;1.73;;
75446;SDS011;64024;55.820;37.574;2023-12-29T12:50:10;1.90;;;1.30;;
75446;SDS011;64024;55.820;37.574;2023-12-29T12:52:37;2.15;;;1.10;;
75446;SDS011;64024;55.820;37.574;2023-12-29T12:55:05;1.85;;;1.20;;
75446;SDS011;64024;55.820;37.574;2023-12-29T12:59:59;2.97;;;1.38;;
75446;SDS011;64024;55.820;37.574;2023-12-29T13:04:52;2.35;;;1.33;;
75446;SDS011;64024;55.820;37.574;2023-12-29T13:07:18;1.80;;;1.10;;
75446;SDS011;64024;55.820;37.574;2023-12-29T13:09:48;2.35;;;1.23;;
75446;SDS011;64024;55.820;37.574;2023-12-29T13:12:16;1.75;;;1.10;;
75446;SDS011;64024;55.820;37.574;2023-12-29T13:14:42;2.15;;;1.23;;
75446;SDS011;64024;55.820;37.574;2023-12-29T13:17:10;2.08;;;1.45;;
75446;SDS011;64024;55.820;37.574;2023-12-29T13:19:37;2.35;;;1.48;;
75446;SDS011;64024;55.820;37.574;2023-12-29T13:22:10;2.28;;;1.27;;
75446;SDS011;64024;55.820;37.574;2023-12-29T13:24:44;3.55;;;1.63;;
75446;SDS011;64024;55.820;37.574;2023-12-29T13:27:11;1.73;;;1.00;;
75446;SDS011;64024;55.820;37.574;2023-12-29T13:29:37;2.80;;;1.30;;
75446;SDS011;64024;55.820;37.574;2023-12-29T13:32:12;2.22;;;1.35;;
75446;SDS011;64024;55.820;37.574;2023-12-29T13:42:32;1.83;;;1.15;;
75446;SDS011;64024;55.820;37.574;2023-12-29T13:45:00;1.70;;;1.13;;
75446;SDS011;64024;55.820;37.574;2023-12-29T13:47:29;2.28;;;1.50;;
75446;SDS011;64024;55.820;37.574;2023-12-29T13:49:56;2.80;;;1.13;;
75446;SDS011;64024;55.820;37.574;2023-12-29T13:52:21;2.22;;;1.48;;
75446;SDS011;64024;55.820;37.574;2023-12-29T13:54:47;3.28;;;2.10;;
75446;SDS011;64024;55.820;37.574;2023-12-29T13:57:14;3.47;;;1.98;;
75446;SDS011;64024;55.820;37.574;2023-12-29T13:59:40;3.25;;;1.75;;
75446;SDS011;64024;55.820;37.574;2023-12-29T14:02:27;1.98;;;1.42;;
75446;SDS011;64024;55.820;37.574;2023-12-29T14:05:10;2.30;;;1.17;;
75446;SDS011;64024;55.820;37.574;2023-12-29T14:10:32;1.90;;;1.35;;
75446;SDS011;64024;55.820;37.574;2023-12-29T14:13:15;2.25;;;1.30;;
75446;SDS011;64024;55.820;37.574;2023-12-29T14:15:42;2.40;;;1.23;;
75446;SDS011;64024;55.820;37.574;2023-12-29T14:20:40;2.63;;;1.55;;
75446;SDS011;64024;55.820;37.574;2023-12-29T14:23:06;2.00;;;1.27;;
75446;SDS011;64024;55.820;37.574;2023-12-29T14:25:33;2.22;;;1.33;;
75446;SDS011;64024;55.820;37.574;2023-12-29T14:28:13;2.90;;;1.20;;
75446;SDS011;64024;55.820;37.574;2023-12-29T14:30:41;3.88;;;1.58;;
75446;SDS011;64024;55.820;37.574;2023-12-29T14:33:07;3.20;;;1.63;;
75446;SDS011;64024;55.820;37.574;2023-12-29T14:35:33;2.90;;;1.70;;
75446;SDS011;64024;55.820;37.574;2023-12-29T14:37:59;4.15;;;1.70;;
75446;SDS011;64024;55.820;37.574;2023-12-29T14:40:25;2.83;;;1.60;;
75446;SDS011;64024;55.820;37.574;2023-12-29T14:42:51;3.38;;;1.90;;
75446;SDS011;64024;55.820;37.574;2023-12-29T14:45:17;3.03;;;1.90;;
75446;SDS011;64024;55.820;37.574;2023-12-29T14:47:43;3.17;;;1.67;;
75446;SDS011;64024;55.820;37.574;2023-12-29T14:50:11;2.85;;;1.48;;
75446;SDS011;64024;55.820;37.574;2023-12-29T14:52:37;2.10;;;1.55;;
75446;SDS011;64024;55.820;37.574;2023-12-29T14:55:03;2.40;;;1.50;;
75446;SDS011;64024;55.820;37.574;2023-12-29T14:57:29;3.00;;;1.83;;
75446;SDS011;64024;55.820;37.574;2023-12-29T14:59:55;2.70;;;1.35;;
75446;SDS011;64024;55.820;37.574;2023-12-29T15:02:21;4.00;;;1.38;;
75446;SDS011;64024;55.820;37.574;2023-12-29T15:04:46;2.47;;;1.60;;
75446;SDS011;64024;55.820;37.574;2023-12-29T15:07:14;3.20;;;1.40;;
75446;SDS011;64024;55.820;37.574;2023-12-29T15:09:40;2.53;;;1.50;;
75446;SDS011;64024;55.820;37.574;2023-12-29T15:12:06;2.15;;;1.42;;
75446;SDS011;64024;55.820;37.574;2023-12-29T15:14:32;3.55;;;1.27;;
75446;SDS011;64024;55.820;37.574;2023-12-29T15:16:58;2.30;;;1.33;;